createdAt,value
2023-03-11T00:01:00.364Z,15.50
2023-03-11T00:03:31.079Z,16.42
2023-03-11T00:06:02.936Z,15.98
2023-03-11T00:08:32.654Z,15.23
2023-03-11T00:11:02.169Z,16.08
2023-03-11T00:13:33.021Z,15.73
2023-03-11T00:16:02.224Z,14.48
2023-03-11T00:18:33.153Z,16.73
2023-03-11T00:21:02.639Z,17.08
2023-03-11T00:23:32.813Z,16.50
2023-03-11T00:26:03.346Z,15.52
2023-03-11T00:28:34.386Z,15.63
2023-03-11T00:31:04.847Z,15.20
2023-03-11T00:33:35.806Z,15.43
2023-03-11T00:36:07.903Z,15.57
2023-03-11T00:38:37.302Z,16.90
2023-03-11T00:41:06.449Z,15.90
2023-03-11T00:43:35.966Z,15.80
2023-03-11T00:46:06.359Z,15.60
2023-03-11T00:48:37.000Z,14.00
2023-03-11T00:51:09.503Z,14.73
2023-03-11T00:53:41.373Z,14.75
2023-03-11T00:56:15.284Z,15.88
2023-03-11T00:58:45.805Z,15.02
2023-03-11T01:01:18.433Z,15.90
2023-03-11T01:03:50.242Z,13.93
2023-03-11T01:06:19.374Z,13.82
2023-03-11T01:08:48.391Z,14.75
2023-03-11T01:11:18.885Z,14.80
2023-03-11T01:13:48.247Z,12.57
2023-03-11T01:16:17.404Z,14.48
2023-03-11T01:18:46.715Z,12.05
2023-03-11T01:21:17.491Z,14.00
2023-03-11T01:23:46.767Z,14.27
2023-03-11T01:26:16.521Z,13.50
2023-03-11T01:28:45.859Z,13.77
2023-03-11T01:31:15.164Z,13.73
2023-03-11T01:33:44.548Z,13.07
2023-03-11T01:36:14.461Z,13.75
2023-03-11T01:38:47.114Z,12.35
2023-03-11T01:41:16.873Z,12.00
2023-03-11T01:43:54.672Z,11.57
2023-03-11T01:46:29.386Z,12.23
2023-03-11T01:49:00.438Z,10.98
2023-03-11T01:51:37.029Z,11.45
2023-03-11T01:54:12.976Z,11.30
2023-03-11T01:56:46.740Z,11.85
2023-03-11T01:59:24.002Z,10.63
2023-03-11T02:02:02.597Z,10.73
2023-03-11T02:04:34.713Z,12.45
2023-03-11T02:07:04.207Z,11.18
2023-03-11T02:09:35.119Z,10.90
2023-03-11T02:12:05.346Z,12.65
2023-03-11T02:14:36.363Z,11.32
2023-03-11T02:17:06.586Z,10.90
2023-03-11T02:19:47.691Z,11.82
2023-03-11T02:22:17.946Z,10.55
2023-03-11T02:24:57.353Z,11.25
2023-03-11T02:27:29.413Z,11.48
2023-03-11T02:30:01.042Z,11.75
2023-03-11T02:32:34.443Z,10.90
2023-03-11T02:35:04.096Z,12.15
2023-03-11T02:37:33.440Z,11.40
2023-03-11T02:40:36.696Z,11.63
2023-03-11T02:43:11.032Z,11.75
2023-03-11T02:45:42.771Z,12.55
2023-03-11T02:48:14.324Z,10.68
2023-03-11T02:50:45.033Z,9.93
2023-03-11T02:53:15.015Z,11.32
2023-03-11T02:55:44.411Z,11.77
2023-03-11T02:58:15.083Z,11.80
2023-03-11T03:00:44.369Z,10.95
2023-03-11T03:03:13.755Z,12.27
2023-03-11T03:05:42.935Z,11.77
2023-03-11T03:08:12.516Z,11.68
2023-03-11T03:10:43.127Z,11.48
2023-03-11T03:13:12.468Z,10.95
2023-03-11T03:15:43.788Z,9.95
2023-03-11T03:18:13.023Z,12.80
2023-03-11T03:20:42.454Z,10.68
2023-03-11T03:23:11.935Z,11.45
2023-03-11T03:25:44.324Z,11.70
2023-03-11T03:28:14.463Z,11.73
2023-03-11T03:30:48.431Z,10.63
2023-03-11T03:33:17.542Z,10.50
2023-03-11T03:35:47.452Z,10.20
2023-03-11T03:38:21.661Z,9.73
2023-03-11T03:40:53.216Z,11.73
2023-03-11T03:43:23.866Z,10.65
2023-03-11T03:46:01.998Z,9.68
2023-03-11T03:48:35.416Z,9.30
2023-03-11T03:51:09.812Z,9.85
2023-03-11T03:53:43.863Z,10.48
2023-03-11T03:56:15.414Z,11.23
2023-03-11T03:58:46.052Z,10.75
2023-03-11T04:01:16.928Z,10.40
2023-03-11T04:03:46.457Z,11.82
2023-03-11T04:06:19.947Z,10.77
2023-03-11T04:08:54.264Z,11.18
2023-03-11T04:11:28.013Z,11.18
2023-03-11T04:13:57.625Z,11.63
2023-03-11T04:16:28.473Z,11.57
2023-03-11T04:19:04.836Z,11.10
2023-03-11T04:21:34.798Z,10.40
2023-03-11T04:24:04.673Z,11.88
2023-03-11T04:26:37.957Z,12.07
2023-03-11T04:29:10.678Z,11.98
2023-03-11T04:31:46.119Z,12.25
2023-03-11T04:34:15.361Z,14.45
2023-03-11T04:36:44.618Z,12.23
2023-03-11T04:39:16.682Z,14.20
2023-03-11T04:41:47.966Z,13.00
2023-03-11T04:44:20.857Z,13.50
2023-03-11T04:46:53.107Z,13.02
2023-03-11T04:49:22.297Z,13.00
2023-03-11T04:51:52.977Z,13.32
2023-03-11T04:54:24.563Z,11.90
2023-03-11T04:56:54.098Z,13.77
2023-03-11T04:59:24.523Z,12.10
2023-03-11T05:01:56.249Z,13.60
2023-03-11T05:04:25.549Z,12.48
2023-03-11T05:06:54.758Z,12.32
2023-03-11T05:09:26.872Z,12.45
2023-03-11T05:11:56.744Z,13.57
2023-03-11T05:14:26.287Z,13.07
2023-03-11T05:16:58.709Z,14.73
2023-03-11T05:19:35.199Z,15.13
2023-03-11T05:22:11.718Z,15.05
2023-03-11T05:24:41.744Z,13.65
2023-03-11T05:27:11.020Z,14.23
2023-03-11T05:29:41.588Z,15.32
2023-03-11T05:32:14.902Z,14.63
2023-03-11T05:34:46.557Z,15.20
2023-03-11T05:37:17.801Z,14.75
2023-03-11T05:39:49.470Z,15.82
2023-03-11T05:42:20.982Z,16.15
2023-03-11T05:44:52.559Z,17.73
2023-03-11T05:47:24.723Z,17.08
2023-03-11T05:49:53.959Z,16.30
2023-03-11T05:52:24.498Z,18.65
2023-03-11T05:54:54.302Z,16.27
2023-03-11T05:59:58.612Z,18.92
2023-03-11T06:02:29.273Z,18.27
2023-03-11T06:04:58.310Z,17.77
2023-03-11T06:07:27.661Z,19.75
2023-03-11T06:09:56.793Z,18.13
2023-03-11T06:12:26.330Z,18.13
2023-03-11T06:15:18.665Z,22.00
2023-03-11T06:17:50.780Z,17.52
2023-03-11T06:20:20.567Z,20.40
2023-03-11T06:22:50.367Z,20.27
2023-03-11T06:25:21.309Z,18.63
2023-03-11T06:27:52.607Z,21.95
2023-03-11T06:30:25.050Z,22.15
2023-03-11T06:33:11.178Z,22.45
2023-03-11T06:35:43.000Z,19.73
2023-03-11T06:38:13.013Z,22.65
2023-03-11T06:40:41.941Z,21.33
2023-03-11T06:43:11.133Z,20.40
2023-03-11T06:45:43.139Z,21.35
2023-03-11T06:48:13.758Z,20.65
2023-03-11T06:51:06.333Z,20.88
2023-03-11T06:53:34.666Z,21.75
2023-03-11T06:56:07.125Z,20.95
2023-03-11T06:58:43.677Z,23.20
2023-03-11T07:01:16.174Z,21.50
2023-03-11T07:03:49.705Z,21.00
2023-03-11T07:06:20.902Z,22.13
2023-03-11T07:08:51.729Z,23.48
2023-03-11T07:11:23.603Z,24.45
2023-03-11T07:16:27.267Z,20.67
2023-03-11T07:19:03.706Z,19.60
2023-03-11T07:21:33.801Z,21.13
2023-03-11T07:24:04.179Z,19.23
2023-03-11T07:26:35.171Z,19.40
2023-03-11T07:29:04.361Z,19.05
2023-03-11T07:31:42.636Z,19.38
2023-03-11T07:34:16.871Z,20.23
2023-03-11T07:36:46.031Z,19.02
2023-03-11T07:39:17.720Z,19.40
2023-03-11T07:41:47.635Z,21.90
2023-03-11T07:44:18.203Z,22.25
2023-03-11T07:46:48.033Z,22.80
2023-03-11T07:49:18.662Z,21.70
2023-03-11T07:51:47.783Z,21.27
2023-03-11T07:54:17.272Z,22.33
2023-03-11T07:56:46.643Z,19.75
2023-03-11T07:59:15.702Z,20.17
2023-03-11T08:01:47.411Z,18.95
2023-03-11T08:04:18.781Z,20.05
2023-03-11T08:06:49.461Z,16.27
2023-03-11T08:09:18.957Z,19.50
2023-03-11T08:11:49.692Z,18.52
2023-03-11T08:14:24.978Z,17.17
2023-03-11T08:16:57.478Z,16.77
2023-03-11T08:19:38.243Z,17.23
2023-03-11T08:22:07.327Z,15.52
2023-03-11T08:24:38.233Z,17.13
2023-03-11T08:27:09.797Z,18.42
2023-03-11T08:29:41.784Z,19.10
2023-03-11T08:32:11.051Z,20.75
2023-03-11T08:34:41.679Z,22.63
2023-03-11T08:37:13.099Z,23.27
2023-03-11T08:39:42.158Z,21.10
2023-03-11T08:42:11.655Z,21.30
2023-03-11T08:44:40.820Z,21.05
2023-03-11T08:47:10.616Z,21.25
2023-03-11T08:49:41.139Z,19.88
2023-03-11T08:52:12.705Z,20.55
2023-03-11T08:54:44.635Z,19.95
2023-03-11T08:57:14.904Z,20.10
2023-03-11T08:59:44.284Z,19.23
2023-03-11T09:02:13.538Z,18.30
2023-03-11T09:04:44.018Z,18.00
2023-03-11T09:07:14.296Z,19.02
2023-03-11T09:09:43.446Z,17.63
2023-03-11T09:12:14.207Z,17.98
2023-03-11T09:14:46.217Z,20.92
2023-03-11T09:17:15.426Z,18.92
2023-03-11T09:19:45.792Z,19.15
2023-03-11T09:22:20.701Z,17.67
2023-03-11T09:24:50.148Z,17.65
2023-03-11T09:27:20.217Z,17.15
2023-03-11T09:29:49.619Z,16.58
2023-03-11T09:32:18.786Z,16.35
2023-03-11T09:34:50.562Z,16.63
2023-03-11T09:37:19.599Z,16.15
2023-03-11T09:39:51.890Z,17.70
2023-03-11T09:42:51.575Z,17.33
2023-03-11T09:45:31.440Z,18.13
2023-03-11T09:48:22.735Z,18.83
2023-03-11T09:50:59.424Z,20.20
2023-03-11T09:53:39.279Z,19.88
2023-03-11T09:56:10.634Z,20.15
2023-03-11T09:58:47.131Z,20.77
2023-03-11T10:01:20.029Z,19.83
2023-03-11T10:03:51.252Z,21.45
2023-03-11T10:06:25.127Z,21.92
2023-03-11T10:09:05.117Z,22.98
2023-03-11T10:11:51.664Z,22.65
2023-03-11T10:15:02.350Z,24.42
2023-03-11T10:17:58.311Z,25.13
2023-03-11T10:20:32.118Z,26.55
2023-03-11T10:25:51.264Z,26.00
2023-03-11T10:28:30.509Z,26.80
2023-03-11T10:31:06.035Z,26.60
2023-03-11T10:33:40.417Z,26.05
2023-03-11T10:36:15.499Z,26.63
2023-03-11T10:38:51.402Z,27.90
2023-03-11T10:41:24.457Z,28.05
2023-03-11T10:43:59.031Z,26.83
2023-03-11T10:46:29.792Z,27.25
2023-03-11T10:48:59.397Z,25.95
2023-03-11T10:51:36.974Z,27.95
2023-03-11T10:54:07.771Z,29.90
2023-03-11T10:56:41.386Z,28.17
2023-03-11T10:59:25.778Z,31.85
2023-03-11T11:02:05.263Z,32.50
2023-03-11T11:04:39.368Z,31.02
2023-03-11T11:07:30.597Z,33.85
2023-03-11T11:10:35.541Z,29.77
2023-03-11T11:13:18.600Z,28.92
2023-03-11T11:16:01.797Z,31.80
2023-03-11T11:18:35.150Z,29.20
2023-03-11T11:21:10.376Z,27.13
2023-03-11T11:23:43.890Z,27.08
2023-03-11T11:26:20.803Z,30.58
2023-03-11T11:29:08.993Z,29.40
2023-03-11T11:31:43.250Z,27.45
2023-03-11T11:34:30.982Z,27.80
2023-03-11T11:37:06.244Z,32.90
2023-03-11T11:39:46.041Z,32.20
2023-03-11T11:42:16.980Z,30.00
2023-03-11T11:44:50.667Z,31.58
2023-03-11T11:50:02.745Z,29.10
2023-03-11T11:52:34.283Z,28.50
2023-03-11T11:55:21.057Z,27.55
2023-03-11T11:57:52.611Z,26.13
2023-03-11T12:00:25.590Z,26.27
2023-03-11T12:03:22.235Z,24.90
2023-03-11T12:06:00.391Z,22.15
2023-03-11T12:08:38.685Z,22.85
2023-03-11T12:11:13.491Z,22.92
2023-03-11T12:14:03.169Z,22.85
2023-03-11T12:16:46.444Z,23.08
2023-03-11T12:19:23.274Z,20.85
2023-03-11T12:22:12.318Z,23.58
2023-03-11T12:25:00.513Z,23.95
2023-03-11T12:27:35.326Z,24.08
2023-03-11T12:30:16.533Z,26.30
2023-03-11T12:32:50.719Z,27.05
2023-03-11T12:35:27.784Z,27.63
2023-03-11T12:38:02.732Z,27.48
2023-03-11T12:40:59.904Z,27.75
2023-03-11T12:44:20.240Z,29.20
2023-03-11T12:47:21.553Z,26.27
2023-03-11T12:49:54.985Z,29.50
2023-03-11T12:52:30.802Z,31.33
2023-03-11T12:55:26.016Z,29.48
2023-03-11T12:58:02.345Z,32.85
2023-03-11T13:00:44.778Z,32.50
2023-03-11T13:03:46.074Z,31.80
2023-03-11T13:06:42.875Z,29.67
2023-03-11T13:09:18.156Z,31.13
2023-03-11T13:11:51.386Z,29.17
2023-03-11T13:14:35.964Z,30.90
2023-03-11T13:17:32.559Z,30.45
2023-03-11T13:20:48.398Z,28.65
2023-03-11T13:27:06.841Z,26.65
2023-03-11T13:29:59.486Z,25.65
2023-03-11T13:32:53.836Z,24.38
2023-03-11T13:35:38.798Z,24.48
2023-03-11T13:38:22.817Z,28.58
2023-03-11T13:40:53.777Z,26.50
2023-03-11T13:43:27.833Z,26.95
2023-03-11T13:46:02.572Z,25.00
2023-03-11T13:48:42.188Z,26.55
2023-03-11T13:51:19.305Z,26.33
2023-03-11T13:53:53.819Z,25.48
2023-03-11T13:56:29.005Z,25.00
2023-03-11T13:59:17.521Z,24.33
2023-03-11T14:01:52.023Z,25.30
2023-03-11T14:04:28.346Z,25.15
2023-03-11T14:06:59.983Z,24.55
2023-03-11T14:09:30.323Z,25.70
2023-03-11T14:12:10.903Z,24.00
2023-03-11T14:14:49.883Z,24.77
2023-03-11T14:18:09.998Z,22.98
2023-03-11T14:21:10.050Z,21.88
2023-03-11T14:25:39.888Z,23.65
2023-03-11T14:29:01.113Z,23.20
2023-03-11T14:36:16.120Z,21.30
2023-03-11T14:40:58.337Z,22.65
2023-03-11T14:43:54.156Z,25.33
2023-03-11T14:46:36.523Z,28.08
2023-03-11T14:49:51.461Z,26.13
2023-03-11T14:52:42.316Z,29.85
2023-03-11T14:55:18.493Z,28.73
2023-03-11T14:57:52.336Z,31.17
2023-03-11T15:00:31.103Z,31.33
2023-03-11T15:03:21.469Z,31.98
2023-03-11T15:05:58.017Z,33.13
2023-03-11T15:08:41.304Z,34.08
2023-03-11T15:11:49.080Z,33.63
2023-03-11T15:14:24.053Z,34.13
2023-03-11T15:16:58.049Z,34.00
2023-03-11T15:19:38.097Z,32.17
2023-03-11T15:22:25.768Z,34.25
2023-03-11T15:24:57.310Z,31.67
2023-03-11T15:27:33.437Z,31.70
2023-03-11T15:30:25.244Z,32.92
2023-03-11T15:33:01.294Z,31.92
2023-03-11T15:35:32.133Z,31.02
2023-03-11T15:38:21.335Z,30.33
2023-03-11T15:40:57.599Z,29.33
2023-03-11T15:43:33.863Z,30.48
2023-03-11T15:46:05.324Z,28.75
2023-03-11T15:48:39.687Z,27.52
2023-03-11T15:51:23.027Z,27.70
2023-03-11T15:53:52.657Z,27.05
2023-03-11T15:56:26.188Z,28.52
2023-03-11T15:58:55.569Z,29.33
2023-03-11T16:01:29.245Z,25.02
2023-03-11T16:04:00.029Z,25.27
2023-03-11T16:06:29.693Z,27.05
2023-03-11T16:08:59.028Z,27.67
2023-03-11T16:11:32.759Z,27.90
2023-03-11T16:14:02.143Z,28.88
2023-03-11T16:16:34.783Z,26.98
2023-03-11T16:19:04.371Z,27.17
2023-03-11T16:21:38.579Z,30.02
2023-03-11T16:24:09.309Z,30.90
2023-03-11T16:26:38.973Z,28.60
2023-03-11T16:29:18.630Z,28.58
2023-03-11T16:31:52.255Z,26.10
2023-03-11T16:34:22.333Z,25.98
2023-03-11T16:36:51.789Z,24.88
2023-03-11T16:39:26.468Z,22.45
2023-03-11T16:41:55.844Z,26.33
2023-03-11T16:44:25.401Z,27.15
2023-03-11T16:46:56.133Z,26.83
2023-03-11T16:49:25.512Z,27.80
2023-03-11T16:51:54.883Z,27.40
2023-03-11T16:54:24.512Z,26.45
2023-03-11T16:56:57.294Z,26.58
2023-03-11T16:59:26.762Z,27.08
2023-03-11T17:01:57.653Z,25.80
2023-03-11T17:04:27.806Z,23.52
2023-03-11T17:06:57.582Z,22.63
2023-03-11T17:09:27.147Z,20.25
2023-03-11T17:11:56.666Z,20.33
2023-03-11T17:14:27.208Z,20.75
2023-03-11T17:17:00.144Z,20.50
2023-03-11T17:19:32.153Z,20.40
2023-03-11T17:22:03.248Z,22.23
2023-03-11T17:24:32.791Z,21.02
2023-03-11T17:27:02.399Z,21.38
2023-03-11T17:29:34.924Z,21.95
2023-03-11T17:32:07.609Z,20.33
2023-03-11T17:34:37.731Z,20.50
2023-03-11T17:37:06.944Z,21.52
2023-03-11T17:39:37.002Z,21.02
2023-03-11T17:42:06.866Z,25.27
2023-03-11T17:44:50.483Z,22.75
2023-03-11T17:47:27.322Z,20.95
2023-03-11T17:49:57.368Z,22.60
2023-03-11T17:52:29.105Z,22.92
2023-03-11T17:54:59.132Z,21.83
2023-03-11T17:57:39.914Z,24.77
2023-03-11T18:00:15.809Z,27.13
2023-03-11T18:02:46.836Z,25.83
2023-03-11T18:05:21.952Z,24.90
2023-03-11T18:08:01.430Z,24.95
2023-03-11T18:10:42.363Z,25.08
2023-03-11T18:13:12.560Z,25.10
2023-03-11T18:16:05.757Z,25.88
2023-03-11T18:18:44.764Z,24.83
2023-03-11T18:21:16.147Z,23.60
2023-03-11T18:23:48.310Z,23.88
2023-03-11T18:26:20.097Z,23.92
2023-03-11T18:28:49.962Z,23.45
2023-03-11T18:31:24.292Z,24.02
2023-03-11T18:33:56.973Z,26.75
2023-03-11T18:36:29.473Z,24.08
2023-03-11T18:39:21.842Z,22.42
2023-03-11T18:41:54.436Z,23.13
2023-03-11T18:44:23.818Z,22.33
2023-03-11T18:46:54.242Z,25.65
2023-03-11T18:49:25.373Z,25.00
2023-03-11T18:51:55.066Z,23.67
2023-03-11T18:54:25.209Z,24.80
2023-03-11T18:56:57.084Z,33.45
2023-03-11T18:59:30.323Z,25.45
2023-03-11T19:02:01.865Z,25.67
2023-03-11T19:04:33.174Z,24.15
2023-03-11T19:07:03.502Z,25.75
2023-03-11T19:09:33.530Z,22.98
2023-03-11T19:12:05.977Z,26.60
2023-03-11T19:14:38.209Z,26.17
2023-03-11T19:17:08.415Z,25.27
2023-03-11T19:19:39.634Z,24.05
2023-03-11T19:22:09.602Z,23.35
2023-03-11T19:24:39.793Z,24.80
2023-03-11T19:27:09.523Z,24.38
2023-03-11T19:29:39.194Z,23.65
2023-03-11T19:32:12.774Z,25.00
2023-03-11T19:37:17.243Z,25.38
2023-03-11T19:39:46.931Z,24.42
2023-03-11T19:42:20.539Z,24.73
2023-03-11T19:47:19.512Z,26.25
2023-03-11T19:49:50.513Z,26.33
2023-03-11T19:52:20.107Z,27.60
2023-03-11T19:54:49.212Z,27.52
2023-03-11T19:57:20.188Z,26.27
2023-03-11T19:59:50.168Z,33.78
2023-03-11T20:02:19.563Z,29.90
2023-03-11T20:04:51.040Z,29.30
2023-03-11T20:07:20.748Z,29.73
2023-03-11T20:09:50.132Z,26.35
2023-03-11T20:12:21.399Z,25.90
2023-03-11T20:14:53.591Z,22.33
2023-03-11T20:17:26.731Z,23.23
2023-03-11T20:20:02.946Z,22.33
2023-03-11T20:23:20.268Z,22.25
2023-03-11T20:25:53.067Z,20.73
2023-03-11T20:28:35.626Z,19.23
2023-03-11T20:31:13.870Z,18.52
2023-03-11T20:33:55.307Z,17.00
2023-03-11T20:36:31.257Z,17.77
2023-03-11T20:40:09.766Z,14.00
2023-03-11T20:42:29.956Z,17.98
2023-03-11T20:45:05.156Z,17.33
2023-03-11T20:47:37.803Z,16.90
2023-03-11T20:50:11.025Z,16.60
2023-03-11T20:52:42.226Z,13.98
2023-03-11T20:55:15.208Z,15.55
2023-03-11T20:57:44.906Z,15.27
2023-03-11T21:00:15.215Z,15.10
2023-03-11T21:02:46.803Z,15.05
2023-03-11T21:05:17.139Z,13.85
2023-03-11T21:07:51.019Z,13.95
2023-03-11T21:10:26.037Z,13.90
2023-03-11T21:13:09.041Z,12.80
2023-03-11T21:15:38.785Z,11.65
2023-03-11T21:18:11.473Z,11.50
2023-03-11T21:20:41.344Z,10.93
2023-03-11T21:23:12.354Z,11.10
2023-03-11T21:25:43.809Z,12.00
2023-03-11T21:28:14.087Z,12.00
2023-03-11T21:30:44.279Z,10.93
2023-03-11T21:33:14.206Z,11.63
2023-03-11T21:35:44.384Z,11.20
2023-03-11T21:38:17.589Z,11.77
2023-03-11T21:40:46.922Z,13.00
2023-03-11T21:43:16.670Z,10.75
2023-03-11T21:45:48.205Z,11.30
2023-03-11T21:48:18.146Z,11.40
2023-03-11T21:50:48.891Z,10.63
2023-03-11T21:53:25.628Z,10.88
2023-03-11T21:55:55.155Z,11.45
2023-03-11T21:58:24.736Z,9.27
2023-03-11T22:00:53.992Z,9.43
2023-03-11T22:03:24.069Z,9.27
2023-03-11T22:05:57.872Z,9.15
2023-03-11T22:10:57.972Z,8.90
2023-03-11T22:13:27.455Z,8.23
2023-03-11T22:15:57.110Z,9.23
2023-03-11T22:18:26.356Z,8.27
2023-03-11T22:20:59.067Z,7.43
2023-03-11T22:23:29.852Z,8.10
2023-03-11T22:25:59.446Z,8.05
2023-03-11T22:28:29.827Z,7.07
2023-03-11T22:30:59.796Z,7.72
2023-03-11T22:33:30.248Z,6.07
2023-03-11T22:36:02.199Z,5.57
2023-03-11T22:38:34.392Z,6.40
2023-03-11T22:41:11.681Z,5.80
2023-03-11T22:43:41.590Z,5.78
2023-03-11T22:46:19.286Z,4.55
2023-03-11T22:48:49.188Z,4.53
2023-03-11T22:51:18.670Z,3.60
2023-03-11T22:53:50.061Z,3.58
2023-03-11T22:56:22.702Z,3.40
2023-03-11T22:58:52.552Z,4.05
2023-03-11T23:01:22.197Z,3.38
2023-03-11T23:03:51.899Z,3.85
2023-03-11T23:06:22.078Z,3.47
2023-03-11T23:08:52.808Z,3.35
2023-03-11T23:11:23.499Z,3.97
2023-03-11T23:13:52.828Z,3.47
2023-03-11T23:16:24.313Z,3.20
2023-03-11T23:18:56.026Z,3.30
2023-03-11T23:21:27.549Z,3.05
2023-03-11T23:23:58.505Z,3.30
2023-03-11T23:26:28.570Z,3.50
2023-03-11T23:28:58.503Z,3.40
2023-03-11T23:31:28.565Z,3.60
2023-03-11T23:33:58.089Z,3.60
2023-03-11T23:36:30.448Z,3.88
2023-03-11T23:39:00.914Z,3.63
2023-03-11T23:41:30.471Z,3.90
2023-03-11T23:43:59.863Z,4.18
2023-03-11T23:46:29.122Z,4.60
2023-03-11T23:48:58.566Z,4.30
2023-03-11T23:51:27.638Z,4.70
2023-03-11T23:53:56.859Z,4.97
2023-03-11T23:56:27.556Z,5.32
2023-03-11T23:58:56.626Z,5.15
